createdAt,value
2022-12-17T00:02:42.354Z,97637.31
2022-12-17T00:05:29.680Z,97641.69
2022-12-17T00:08:22.161Z,97644.28
2022-12-17T00:11:07.686Z,97648.69
2022-12-17T00:13:53.216Z,97651.19
2022-12-17T00:16:40.804Z,97652.91
2022-12-17T00:19:26.490Z,97653.00
2022-12-17T00:22:13.426Z,97660.94
2022-12-17T00:24:59.022Z,97652.16
2022-12-17T00:27:44.668Z,97663.56
2022-12-17T00:30:30.868Z,97672.13
2022-12-17T00:33:16.437Z,97669.50
2022-12-17T00:36:02.245Z,97670.44
2022-12-17T00:38:49.321Z,97674.84
2022-12-17T00:41:34.964Z,97677.44
2022-12-17T00:44:20.814Z,97686.25
2022-12-17T00:47:06.500Z,97682.78
2022-12-17T00:49:52.023Z,97689.91
2022-12-17T00:52:37.884Z,97695.94
2022-12-17T00:55:26.015Z,97697.75
2022-12-17T00:58:12.625Z,97703.16
2022-12-17T01:00:58.694Z,97712.75
2022-12-17T01:03:45.070Z,97711.81
2022-12-17T01:06:30.900Z,97718.94
2022-12-17T01:09:17.026Z,97721.66
2022-12-17T01:12:04.212Z,97723.50
2022-12-17T01:14:51.980Z,97732.28
2022-12-17T01:17:37.522Z,97734.16
2022-12-17T01:20:24.781Z,97739.47
2022-12-17T01:23:10.268Z,97749.84
2022-12-17T01:25:56.374Z,97744.69
2022-12-17T01:28:44.460Z,97747.50
2022-12-17T01:31:34.955Z,97750.22
2022-12-17T01:34:21.375Z,97751.16
2022-12-17T01:37:06.906Z,97766.84
2022-12-17T01:39:52.380Z,97766.06
2022-12-17T01:42:38.017Z,97765.22
2022-12-17T01:45:29.516Z,97768.88
2022-12-17T01:48:19.346Z,97772.63
2022-12-17T01:51:09.802Z,97769.91
2022-12-17T01:53:59.914Z,97768.19
2022-12-17T01:56:46.392Z,97771.75
2022-12-17T01:59:33.869Z,97774.47
2022-12-17T02:02:21.033Z,97769.22
2022-12-17T02:05:06.851Z,97784.06
2022-12-17T02:08:12.051Z,97789.38
2022-12-17T02:11:08.409Z,97799.13
2022-12-17T02:14:00.265Z,97794.78
2022-12-17T02:16:58.310Z,97800.03
2022-12-17T02:19:58.054Z,97797.31
2022-12-17T02:22:55.290Z,97798.16
2022-12-17T02:25:51.410Z,97802.53
2022-12-17T02:28:39.946Z,97800.88
2022-12-17T02:31:26.862Z,97804.34
2022-12-17T02:34:13.208Z,97808.63
2022-12-17T02:36:58.843Z,97813.84
2022-12-17T02:39:44.852Z,97811.31
2022-12-17T02:42:30.436Z,97818.22
2022-12-17T02:45:17.416Z,97819.09
2022-12-17T02:48:04.283Z,97823.47
2022-12-17T02:50:50.345Z,97827.78
2022-12-17T02:53:38.546Z,97829.53
2022-12-17T02:56:24.412Z,97829.53
2022-12-17T02:59:10.020Z,97837.28
2022-12-17T03:01:57.300Z,97837.19
2022-12-17T03:04:43.239Z,97850.19
2022-12-17T03:07:28.844Z,97853.81
2022-12-17T03:10:14.361Z,97851.22
2022-12-17T03:13:00.111Z,97847.75
2022-12-17T03:15:45.771Z,97858.28
2022-12-17T03:18:33.280Z,97855.75
2022-12-17T03:21:18.914Z,97865.44
2022-12-17T03:24:03.649Z,97865.56
2022-12-17T03:26:50.684Z,97864.72
2022-12-17T03:29:36.255Z,97865.66
2022-12-17T03:32:22.019Z,97874.41
2022-12-17T03:35:09.022Z,97871.72
2022-12-17T03:38:02.926Z,97883.00
2022-12-17T03:40:48.787Z,97883.09
2022-12-17T03:43:34.596Z,97883.88
2022-12-17T03:46:20.519Z,97876.94
2022-12-17T03:49:06.381Z,97888.25
2022-12-17T03:51:53.551Z,97895.22
2022-12-17T03:54:39.219Z,97894.59
2022-12-17T03:57:24.692Z,97898.03
2022-12-17T04:00:10.304Z,97906.72
2022-12-17T04:02:56.229Z,97909.31
2022-12-17T04:05:41.922Z,97908.47
2022-12-17T04:08:29.112Z,97911.09
2022-12-17T04:11:14.579Z,97921.53
2022-12-17T04:14:00.081Z,97918.94
2022-12-17T04:16:45.524Z,97929.38
2022-12-17T04:19:30.955Z,97925.84
2022-12-17T04:22:16.542Z,97940.59
2022-12-17T04:28:03.234Z,97943.97
2022-12-17T04:30:48.854Z,97951.81
2022-12-17T04:33:34.910Z,97945.75
2022-12-17T04:36:20.699Z,97953.59
2022-12-17T04:39:06.378Z,97965.81
2022-12-17T04:41:52.233Z,97964.91
2022-12-17T04:44:39.498Z,97966.75
2022-12-17T04:47:24.921Z,97968.50
2022-12-17T04:50:10.929Z,97966.81
2022-12-17T04:53:11.291Z,97967.69
2022-12-17T04:55:59.351Z,97971.28
2022-12-17T04:58:44.875Z,97968.84
2022-12-17T05:01:32.017Z,97974.06
2022-12-17T05:04:17.668Z,97969.78
2022-12-17T05:07:03.455Z,97971.53
2022-12-17T05:09:49.007Z,97977.69
2022-12-17T05:12:34.543Z,97981.34
2022-12-17T05:15:20.251Z,97978.81
2022-12-17T05:18:07.137Z,97981.41
2022-12-17T05:20:52.765Z,97983.34
2022-12-17T05:23:37.749Z,97989.44
2022-12-17T05:26:38.420Z,97993.81
2022-12-17T05:29:38.486Z,98009.56
2022-12-17T05:32:24.347Z,98008.72
2022-12-17T05:35:11.527Z,98014.00
2022-12-17T05:37:57.120Z,98012.34
2022-12-17T05:40:42.629Z,98028.03
2022-12-17T05:43:31.426Z,98033.41
2022-12-17T05:46:18.462Z,98038.63
2022-12-17T05:49:04.278Z,98046.56
2022-12-17T05:51:51.314Z,98052.72
2022-12-17T05:54:37.198Z,98058.75
2022-12-17T05:57:22.811Z,98053.63
2022-12-17T06:00:08.348Z,98056.31
2022-12-17T06:02:54.041Z,98058.94
2022-12-17T06:05:39.710Z,98065.94
2022-12-17T06:08:28.338Z,98072.91
2022-12-17T06:11:18.071Z,98075.53
2022-12-17T06:14:05.089Z,98071.25
2022-12-17T06:16:50.561Z,98075.69
2022-12-17T06:19:36.039Z,98082.69
2022-12-17T06:22:21.711Z,98087.16
2022-12-17T06:25:08.493Z,98096.69
2022-12-17T06:27:54.068Z,98106.28
2022-12-17T06:30:39.517Z,98097.59
2022-12-17T06:33:26.382Z,98107.22
2022-12-17T06:36:19.720Z,98099.44
2022-12-17T06:39:07.767Z,98109.03
2022-12-17T06:42:02.171Z,98116.88
2022-12-17T06:44:49.591Z,98127.47
2022-12-17T06:47:35.449Z,98123.19
2022-12-17T06:50:21.402Z,98131.09
2022-12-17T06:53:06.181Z,98126.91
2022-12-17T06:55:51.882Z,98131.25
2022-12-17T06:58:38.998Z,98139.09
2022-12-17T07:01:25.069Z,98147.88
2022-12-17T07:04:11.072Z,98140.03
2022-12-17T07:06:56.646Z,98141.78
2022-12-17T07:09:42.211Z,98147.94
2022-12-17T07:12:36.331Z,98155.88
2022-12-17T07:15:24.512Z,98165.44
2022-12-17T07:18:14.658Z,98168.84
2022-12-17T07:21:00.572Z,98170.53
2022-12-17T07:23:46.549Z,98167.91
2022-12-17T07:26:32.414Z,98167.16
2022-12-17T07:29:18.400Z,98179.44
2022-12-17T07:32:05.573Z,98186.44
2022-12-17T07:34:51.166Z,98182.13
2022-12-17T07:37:37.098Z,98191.88
2022-12-17T07:40:23.742Z,98202.41
2022-12-17T07:43:09.327Z,98205.00
2022-12-17T07:45:55.125Z,98196.50
2022-12-17T07:48:42.244Z,98202.56
2022-12-17T07:51:27.678Z,98199.13
2022-12-17T07:54:13.546Z,98210.47
2022-12-17T07:56:59.114Z,98225.22
2022-12-17T07:59:44.813Z,98223.50
2022-12-17T08:02:30.449Z,98213.06
2022-12-17T08:05:17.541Z,98227.84
2022-12-17T08:08:03.247Z,98219.94
2022-12-17T08:10:48.843Z,98231.28
2022-12-17T08:13:35.106Z,98239.09
2022-12-17T08:16:35.861Z,98245.19
2022-12-17T08:19:21.690Z,98246.03
2022-12-17T08:22:08.891Z,98237.34
2022-12-17T08:24:54.690Z,98256.25
2022-12-17T08:27:40.139Z,98260.56
2022-12-17T08:30:27.125Z,98257.00
2022-12-17T08:33:13.014Z,98261.34
2022-12-17T08:35:58.606Z,98267.31
2022-12-17T08:38:45.820Z,98265.41
2022-12-17T08:41:31.212Z,98269.69
2022-12-17T08:44:16.976Z,98273.00
2022-12-17T08:47:02.766Z,98272.94
2022-12-17T08:49:49.768Z,98273.69
2022-12-17T08:52:35.343Z,98278.00
2022-12-17T08:55:23.034Z,98280.53
2022-12-17T08:58:12.610Z,98283.91
2022-12-17T09:00:58.952Z,98275.41
2022-12-17T09:03:44.818Z,98283.97
2022-12-17T09:06:35.919Z,98286.66
2022-12-17T09:09:25.114Z,98291.91
2022-12-17T09:12:12.287Z,98297.97
2022-12-17T09:14:57.821Z,98299.66
2022-12-17T09:17:43.351Z,98305.81
2022-12-17T09:20:29.807Z,98307.66
2022-12-17T09:23:15.868Z,98312.13
2022-12-17T09:26:01.733Z,98312.28
2022-12-17T09:28:48.715Z,98322.72
2022-12-17T09:31:37.547Z,98313.19
2022-12-17T09:34:23.720Z,98327.88
2022-12-17T09:37:09.611Z,98328.63
2022-12-17T09:39:56.454Z,98323.25
2022-12-17T09:42:54.449Z,98332.34
2022-12-17T09:45:51.508Z,98335.25
2022-12-17T09:48:44.070Z,98329.50
2022-12-17T09:51:41.742Z,98335.66
2022-12-17T09:54:38.623Z,98333.97
2022-12-17T09:57:31.080Z,98334.16
2022-12-17T10:00:17.014Z,98338.53
2022-12-17T10:03:04.907Z,98341.13
2022-12-17T10:05:52.026Z,98342.75
2022-12-17T10:08:40.471Z,98348.78
2022-12-17T10:11:38.019Z,98347.03
2022-12-17T10:14:34.717Z,98353.03
2022-12-17T10:17:21.205Z,98361.72
2022-12-17T10:20:13.586Z,98365.28
2022-12-17T10:23:04.159Z,98358.31
2022-12-17T10:25:50.630Z,98353.78
2022-12-17T10:28:39.371Z,98353.84
2022-12-17T10:31:29.080Z,98359.19
2022-12-17T10:34:15.973Z,98352.47
2022-12-17T10:37:07.946Z,98358.59
2022-12-17T10:39:54.327Z,98350.72
2022-12-17T10:42:44.435Z,98361.34
2022-12-17T10:45:43.119Z,98364.03
2022-12-17T10:48:38.866Z,98360.56
2022-12-17T10:51:36.504Z,98361.81
2022-12-17T10:54:40.754Z,98370.59
2022-12-17T10:57:46.002Z,98365.69
2022-12-17T11:00:49.022Z,98365.88
2022-12-17T11:03:52.496Z,98367.16
2022-12-17T11:06:44.717Z,98376.50
2022-12-17T11:09:46.732Z,98371.88
2022-12-17T11:12:35.120Z,98378.72
2022-12-17T11:15:32.435Z,98378.72
2022-12-17T11:18:20.291Z,98361.53
2022-12-17T11:21:10.924Z,98372.41
2022-12-17T11:24:03.382Z,98371.13
2022-12-17T11:26:55.603Z,98376.19
2022-12-17T11:29:41.880Z,98387.41
2022-12-17T11:33:01.168Z,98388.25
2022-12-17T11:35:56.331Z,98391.56
2022-12-17T11:38:53.806Z,98391.25
2022-12-17T11:41:55.481Z,98398.75
2022-12-17T11:45:00.976Z,98400.06
2022-12-17T11:47:59.122Z,98403.13
2022-12-17T11:50:51.503Z,98404.44
2022-12-17T11:54:01.634Z,98405.84
2022-12-17T11:56:54.479Z,98407.13
2022-12-17T11:59:52.883Z,98402.41
2022-12-17T12:02:57.698Z,98407.94
2022-12-17T12:05:56.925Z,98409.13
2022-12-17T12:08:46.464Z,98407.91
2022-12-17T12:11:46.220Z,98407.38
2022-12-17T12:14:47.725Z,98409.63
2022-12-17T12:18:02.011Z,98411.91
2022-12-17T12:21:32.001Z,98403.81
2022-12-17T12:24:46.117Z,98403.31
2022-12-17T12:27:42.998Z,98399.34
2022-12-17T12:30:35.807Z,98402.31
2022-12-17T12:33:36.736Z,98406.94
2022-12-17T12:36:30.667Z,98404.66
2022-12-17T12:39:19.816Z,98407.63
2022-12-17T12:42:11.963Z,98413.97
2022-12-17T12:45:07.689Z,98410.00
2022-12-17T12:48:04.971Z,98412.88
2022-12-17T12:51:03.563Z,98420.13
2022-12-17T12:53:49.155Z,98416.00
2022-12-17T12:56:52.328Z,98415.41
2022-12-17T12:59:46.727Z,98416.53
2022-12-17T13:02:44.634Z,98413.28
2022-12-17T13:05:34.242Z,98416.16
2022-12-17T13:08:22.644Z,98418.16
2022-12-17T13:10:53.217Z,98418.25
2022-12-17T13:13:55.907Z,98419.25
2022-12-17T13:16:36.639Z,98429.97
2022-12-17T13:19:19.754Z,98435.38
2022-12-17T13:21:49.971Z,98432.81
2022-12-17T13:24:28.492Z,98438.22
2022-12-17T13:26:56.763Z,98436.53
2022-12-17T13:29:29.648Z,98442.78
2022-12-17T13:32:22.818Z,98444.63
2022-12-17T13:35:10.455Z,98448.25
2022-12-17T13:37:53.637Z,98450.16
2022-12-17T13:40:35.920Z,98451.34
2022-12-17T13:43:04.440Z,98458.25
2022-12-17T13:45:37.531Z,98464.50
2022-12-17T13:48:06.167Z,98469.81
2022-12-17T13:50:36.018Z,98460.31
2022-12-17T13:53:13.298Z,98473.56
2022-12-17T13:55:42.077Z,98465.88
2022-12-17T13:58:27.517Z,98472.09
2022-12-17T14:01:07.734Z,98486.19
2022-12-17T14:04:05.400Z,98493.25
2022-12-17T14:06:27.820Z,98496.88
2022-12-17T14:08:58.731Z,98496.97
2022-12-17T14:11:44.995Z,98496.09
2022-12-17T14:14:25.190Z,98505.88
2022-12-17T14:16:53.512Z,98508.56
2022-12-17T14:19:25.196Z,98508.72
2022-12-17T14:21:53.832Z,98512.31
2022-12-17T14:24:29.064Z,98518.56
2022-12-17T14:26:59.818Z,98510.00
2022-12-17T14:29:31.145Z,98517.16
2022-12-17T14:32:03.168Z,98514.69
2022-12-17T14:34:42.701Z,98519.22
2022-12-17T14:37:19.695Z,98522.06
2022-12-17T14:39:49.965Z,98524.03
2022-12-17T14:42:29.617Z,98516.44
2022-12-17T14:45:02.262Z,98519.25
2022-12-17T14:47:32.805Z,98516.94
2022-12-17T14:50:06.254Z,98525.81
2022-12-17T14:52:42.448Z,98522.50
2022-12-17T14:55:34.029Z,98525.34
2022-12-17T14:58:22.007Z,98532.53
2022-12-17T15:00:54.663Z,98536.28
2022-12-17T15:03:27.517Z,98546.88
2022-12-17T15:05:59.495Z,98544.53
2022-12-17T15:08:31.442Z,98548.22
2022-12-17T15:11:01.088Z,98551.03
2022-12-17T15:13:29.506Z,98553.00
2022-12-17T15:15:58.784Z,98557.75
2022-12-17T15:18:27.074Z,98557.00
2022-12-17T15:20:55.362Z,98565.84
2022-12-17T15:23:25.342Z,98566.06
2022-12-17T15:25:55.847Z,98569.78
2022-12-17T15:28:29.798Z,98570.19
2022-12-17T15:30:58.141Z,98582.66
2022-12-17T15:33:26.426Z,98579.59
2022-12-17T15:35:54.669Z,98584.34
2022-12-17T15:38:22.928Z,98595.03
2022-12-17T15:40:54.553Z,98590.13
2022-12-17T15:43:24.088Z,98599.06
2022-12-17T15:45:54.324Z,98601.03
2022-12-17T15:48:23.699Z,98609.91
2022-12-17T15:50:51.977Z,98606.66
2022-12-17T15:53:20.232Z,98609.34
2022-12-17T15:55:48.475Z,98611.13
2022-12-17T15:58:16.712Z,98613.81
2022-12-17T16:00:46.436Z,98613.94
2022-12-17T16:03:14.908Z,98619.25
2022-12-17T16:05:43.220Z,98620.13
2022-12-17T16:08:11.586Z,98615.03
2022-12-17T16:10:40.059Z,98615.22
2022-12-17T16:13:08.361Z,98613.72
2022-12-17T16:15:36.703Z,98619.06
2022-12-17T16:18:06.580Z,98614.94
2022-12-17T16:20:34.869Z,98616.03
2022-12-17T16:23:03.130Z,98618.88
2022-12-17T16:25:31.456Z,98625.13
2022-12-17T16:27:59.742Z,98624.38
2022-12-17T16:30:27.996Z,98619.31
2022-12-17T16:32:59.094Z,98627.31
2022-12-17T16:35:29.540Z,98624.03
2022-12-17T16:37:57.775Z,98623.31
2022-12-17T16:40:26.166Z,98627.75
2022-12-17T16:42:54.455Z,98634.00
2022-12-17T16:45:22.714Z,98635.09
2022-12-17T16:47:51.014Z,98639.53
2022-12-17T16:50:19.342Z,98634.56
2022-12-17T16:52:48.992Z,98633.03
2022-12-17T16:55:17.473Z,98644.44
2022-12-17T16:57:48.520Z,98646.44
2022-12-17T17:00:17.265Z,98651.84
2022-12-17T17:02:53.015Z,98650.28
2022-12-17T17:05:21.852Z,98648.75
2022-12-17T17:07:52.092Z,98644.56
2022-12-17T17:10:20.849Z,98654.22
2022-12-17T17:12:49.156Z,98658.75
2022-12-17T17:15:17.609Z,98648.50
2022-12-17T17:17:54.158Z,98653.03
2022-12-17T17:20:24.613Z,98656.69
2022-12-17T17:22:57.096Z,98651.66
2022-12-17T17:25:34.720Z,98651.81
2022-12-17T17:28:12.483Z,98652.81
2022-12-17T17:30:40.775Z,98663.38
2022-12-17T17:33:09.036Z,98672.19
2022-12-17T17:35:37.317Z,98674.06
2022-12-17T17:38:06.928Z,98682.00
2022-12-17T17:40:35.207Z,98687.28
2022-12-17T17:43:03.481Z,98686.53
2022-12-17T17:45:31.843Z,98691.00
2022-12-17T17:48:00.078Z,98696.25
2022-12-17T17:50:28.434Z,98703.31
2022-12-17T17:52:56.697Z,98699.09
2022-12-17T17:55:26.391Z,98707.84
2022-12-17T17:57:54.934Z,98701.91
2022-12-17T18:00:23.178Z,98706.38
2022-12-17T18:02:51.675Z,98712.53
2022-12-17T18:05:20.059Z,98720.44
2022-12-17T18:07:48.429Z,98717.09
2022-12-17T18:10:16.768Z,98720.63
2022-12-17T18:13:06.203Z,98724.19
2022-12-17T18:15:34.613Z,98736.47
2022-12-17T18:18:02.843Z,98743.50
2022-12-17T18:20:31.176Z,98743.53
2022-12-17T18:22:59.558Z,98727.13
2022-12-17T18:25:30.440Z,98734.06
2022-12-17T18:28:02.615Z,98741.84
2022-12-17T18:30:30.926Z,98743.63
2022-12-17T18:32:59.198Z,98748.78
2022-12-17T18:35:27.985Z,98747.03
2022-12-17T18:37:56.261Z,98754.78
2022-12-17T18:40:28.758Z,98763.41
2022-12-17T18:43:18.594Z,98756.47
2022-12-17T18:45:46.841Z,98762.53
2022-12-17T18:48:15.111Z,98758.19
2022-12-17T18:50:43.445Z,98760.78
2022-12-17T18:53:11.876Z,98769.25
2022-12-17T18:55:41.220Z,98773.50
2022-12-17T18:58:11.191Z,98777.06
2022-12-17T19:00:40.014Z,98777.75
2022-12-17T19:03:10.172Z,98788.09
2022-12-17T19:05:45.142Z,98789.69
2022-12-17T19:08:14.901Z,98793.09
2022-12-17T19:10:43.244Z,98792.91
2022-12-17T19:13:13.000Z,98792.09
2022-12-17T19:15:41.478Z,98800.66
2022-12-17T19:18:09.782Z,98803.19
2022-12-17T19:20:38.105Z,98801.41
2022-12-17T19:23:06.442Z,98801.34
2022-12-17T19:25:35.114Z,98809.94
2022-12-17T19:28:05.202Z,98813.31
2022-12-17T19:30:34.922Z,98809.81
2022-12-17T19:33:03.301Z,98808.84
2022-12-17T19:35:31.592Z,98822.66
2022-12-17T19:37:59.878Z,98826.97
2022-12-17T19:40:28.152Z,98824.31
2022-12-17T19:42:56.769Z,98814.88
2022-12-17T19:45:25.248Z,98819.03
2022-12-17T19:47:55.329Z,98819.88
2022-12-17T19:50:23.619Z,98818.03
2022-12-17T19:52:52.350Z,98825.75
2022-12-17T19:55:21.528Z,98818.75
2022-12-17T19:57:49.844Z,98812.59
2022-12-17T20:00:18.775Z,98815.97
2022-12-17T20:02:47.169Z,98811.59
2022-12-17T20:05:17.115Z,98815.88
2022-12-17T20:07:45.372Z,98811.47
2022-12-17T20:10:13.717Z,98809.72
2022-12-17T20:12:42.101Z,98810.56
2022-12-17T20:15:11.490Z,98819.09
2022-12-17T20:17:39.785Z,98818.22
2022-12-17T20:20:09.927Z,98816.41
2022-12-17T20:22:39.609Z,98810.41
2022-12-17T20:25:11.333Z,98815.63
2022-12-17T20:27:40.289Z,98815.63
2022-12-17T20:30:10.566Z,98811.28
2022-12-17T20:32:38.865Z,98818.25
2022-12-17T20:35:08.949Z,98815.66
2022-12-17T20:37:37.279Z,98813.00
2022-12-17T20:40:09.318Z,98807.81
2022-12-17T20:42:37.760Z,98809.50
2022-12-17T20:45:07.213Z,98814.75
2022-12-17T20:47:35.589Z,98818.31
2022-12-17T20:50:04.001Z,98814.84
2022-12-17T20:52:32.361Z,98819.19
2022-12-17T20:55:00.660Z,98814.03
2022-12-17T20:57:30.398Z,98825.44
2022-12-17T20:59:58.823Z,98828.03
2022-12-17T21:02:29.783Z,98829.69
2022-12-17T21:04:58.382Z,98830.59
2022-12-17T21:07:26.887Z,98825.44
2022-12-17T21:09:55.314Z,98837.44
2022-12-17T21:12:43.823Z,98834.78
2022-12-17T21:15:13.587Z,98831.41
2022-12-17T21:17:41.980Z,98830.59
2022-12-17T21:20:11.868Z,98839.19
2022-12-17T21:22:41.790Z,98836.66
2022-12-17T21:25:10.935Z,98840.91
2022-12-17T21:27:39.359Z,98845.19
2022-12-17T21:30:09.496Z,98849.47
2022-12-17T21:32:41.692Z,98852.13
2022-12-17T21:35:11.269Z,98852.84
2022-12-17T21:37:39.678Z,98852.81
2022-12-17T21:40:10.770Z,98858.94
2022-12-17T21:42:56.279Z,98860.63
2022-12-17T21:45:25.807Z,98853.72
2022-12-17T21:47:55.732Z,98854.69
2022-12-17T21:50:24.196Z,98847.84
2022-12-17T21:52:52.591Z,98846.09
2022-12-17T21:55:20.960Z,98851.31
2022-12-17T21:57:49.382Z,98848.69
2022-12-17T22:00:18.923Z,98846.91
2022-12-17T22:02:47.441Z,98852.94
2022-12-17T22:05:18.095Z,98848.59
2022-12-17T22:07:47.872Z,98860.66
2022-12-17T22:10:37.516Z,98853.72
2022-12-17T22:13:23.720Z,98849.44
2022-12-17T22:15:52.303Z,98846.78
2022-12-17T22:18:20.849Z,98850.16
2022-12-17T22:21:00.229Z,98855.38
2022-12-17T22:23:31.828Z,98851.03
2022-12-17T22:26:00.388Z,98858.84
2022-12-17T22:28:28.754Z,98854.50
2022-12-17T22:31:14.416Z,98858.75
2022-12-17T22:34:25.949Z,98863.84
2022-12-17T22:39:07.774Z,98864.69
2022-12-17T22:44:28.636Z,98864.69
2022-12-17T22:44:49.497Z,98862.84
2022-12-17T22:45:18.308Z,98868.88
2022-12-17T22:47:47.132Z,98868.88
2022-12-17T22:50:15.681Z,98877.50
2022-12-17T22:52:45.986Z,98879.25
2022-12-17T22:55:16.227Z,98867.03
2022-12-17T22:57:45.031Z,98876.50
2022-12-17T23:00:18.707Z,98871.25
2022-12-17T23:02:47.037Z,98874.66
2022-12-17T23:05:15.664Z,98870.38
2022-12-17T23:07:45.338Z,98887.63
2022-12-17T23:10:13.674Z,98885.88
2022-12-17T23:12:54.372Z,98879.69
2022-12-17T23:15:31.122Z,98880.53
2022-12-17T23:18:02.838Z,98877.03
2022-12-17T23:20:34.785Z,98883.03
2022-12-17T23:23:05.010Z,98881.25
2022-12-17T23:25:33.558Z,98880.28
2022-12-17T23:28:01.827Z,98879.31
2022-12-17T23:30:30.168Z,98885.34
2022-12-17T23:32:58.532Z,98884.38
2022-12-17T23:35:26.856Z,98885.25
2022-12-17T23:37:55.590Z,98886.03
2022-12-17T23:40:25.855Z,98881.59
2022-12-17T23:42:54.162Z,98881.56
2022-12-17T23:45:22.527Z,98882.41
2022-12-17T23:47:50.975Z,98878.91
2022-12-17T23:50:19.585Z,98885.03
2022-12-17T23:52:47.871Z,98886.81
2022-12-17T23:55:16.150Z,98889.31
2022-12-17T23:57:45.831Z,98887.63
